Time;durP1;ratioP1;P1;durP2;ratioP2;P2;SDS_P1;SDS_P2;PMS_P1;PMS_P2;Temp;Humidity;BMP_temperature;BMP_pressure;BME280_temperature;BME280_humidity;BME280_pressure;Samples;Min_cycle;Max_cycle;Signal;HPM_P1;HPM_P2
2022/06/03 00:00:48;;;;;;;4.87;4.33;;;;;;;;;;5065661;28;20546;-81
2022/06/03 00:03:14;;;;;;;6.17;4.20;;;;;;;;;;5066507;28;20404;-81
2022/06/03 00:05:48;;;;;;;4.30;3.90;;;;;;;;;;5072648;28;20380;-81
2022/06/03 00:08:19;;;;;;;4.50;4.10;;;;;;;;;;5072676;28;20429;-81
2022/06/03 00:10:45;;;;;;;4.65;4.25;;;;;;;;;;5072626;28;20383;-81
2022/06/03 00:13:19;;;;;;;4.50;4.10;;;;;;;;;;5072019;28;20918;-81
2022/06/03 00:15:48;;;;;;;4.72;4.30;;;;;;;;;;5072500;28;20471;-81
2022/06/03 00:18:17;;;;;;;4.30;4.00;;;;;;;;;;5072483;28;20380;-81
2022/06/03 00:21:18;;;;;;;4.72;4.32;;;;;;;;;;5054430;28;20953;-81
2022/06/03 00:24:06;;;;;;;4.32;4.03;;;;;;;;;;4955491;28;20754;-81
2022/06/03 00:26:38;;;;;;;4.28;3.97;;;;;;;;;;5066995;28;20891;-81
2022/06/03 00:29:13;;;;;;;4.55;4.20;;;;;;;;;;5066135;28;20405;-81
2022/06/03 00:31:59;;;;;;;5.25;4.80;;;;;;;;;;5051783;28;20441;-81
2022/06/03 00:34:31;;;;;;;4.80;4.40;;;;;;;;;;5072256;28;20414;-81
2022/06/03 00:37:03;;;;;;;4.57;4.18;;;;;;;;;;5072222;28;20376;-81
2022/06/03 00:39:41;;;;;;;4.10;3.80;;;;;;;;;;5070665;28;20379;-81
2022/06/03 00:42:17;;;;;;;4.63;4.27;;;;;;;;;;5050274;28;20496;-81
2022/06/03 00:45:01;;;;;;;4.65;4.25;;;;;;;;;;5070671;28;20746;-81
2022/06/03 00:47:46;;;;;;;4.38;4.07;;;;;;;;;;5072127;28;20364;-81
2022/06/03 00:50:30;;;;;;;3.92;3.63;;;;;;;;;;5072462;28;20382;-81
2022/06/03 00:53:02;;;;;;;4.60;4.20;;;;;;;;;;5071894;28;20852;-81
2022/06/03 00:55:41;;;;;;;4.72;4.32;;;;;;;;;;5072138;28;20380;-81
2022/06/03 00:58:22;;;;;;;4.00;3.70;;;;;;;;;;5072199;28;20395;-81
2022/06/03 01:01:11;;;;;;;4.53;4.20;;;;;;;;;;5071848;28;20460;-81
2022/06/03 01:03:43;;;;;;;5.20;4.80;;;;;;;;;;5059102;28;20394;-81
2022/06/03 01:06:17;;;;;;;4.68;4.13;;;;;;;;;;5071985;28;20919;-81
2022/06/03 01:08:47;;;;;;;4.55;4.25;;;;;;;;;;5071919;28;20841;-81
2022/06/03 01:11:24;;;;;;;4.80;4.50;;;;;;;;;;5071995;28;20450;-81
2022/06/03 01:14:20;;;;;;;4.43;4.03;;;;;;;;;;5071848;28;20467;-81
2022/06/03 01:16:56;;;;;;;4.30;4.00;;;;;;;;;;5050919;28;20938;-81
2022/06/03 01:19:42;;;;;;;4.68;4.18;;;;;;;;;;5071801;28;20455;-81
2022/06/03 01:22:27;;;;;;;4.07;3.78;;;;;;;;;;5053084;28;20940;-81
2022/06/03 01:25:02;;;;;;;4.35;4.05;;;;;;;;;;5074308;28;20426;-81
2022/06/03 01:27:47;;;;;;;4.72;4.32;;;;;;;;;;5075703;28;20376;-81
2022/06/03 01:30:24;;;;;;;4.60;4.30;;;;;;;;;;5074176;28;20462;-81
2022/06/03 01:32:56;;;;;;;4.00;3.80;;;;;;;;;;5061153;28;20789;-81
2022/06/03 01:35:25;;;;;;;4.65;4.32;;;;;;;;;;5075648;28;20868;-81
2022/06/03 01:38:09;;;;;;;4.85;4.45;;;;;;;;;;5075762;28;20383;-81
2022/06/03 01:40:48;;;;;;;4.35;4.05;;;;;;;;;;5075519;28;20402;-81
2022/06/03 01:43:20;;;;;;;4.20;3.90;;;;;;;;;;5058447;28;20760;-81
2022/06/03 01:46:05;;;;;;;4.50;4.10;;;;;;;;;;5075408;28;20382;-81
2022/06/03 01:48:34;;;;;;;4.10;3.80;;;;;;;;;;5057623;28;20437;-81
2022/06/03 01:51:09;;;;;;;4.65;4.28;;;;;;;;;;5075274;28;20854;-81
2022/06/03 01:53:35;;;;;;;4.57;4.28;;;;;;;;;;5075416;28;20387;-81
2022/06/03 01:56:20;;;;;;;4.60;4.20;;;;;;;;;;5075232;28;20372;-81
2022/06/03 01:58:49;;;;;;;4.50;4.10;;;;;;;;;;5074958;28;20387;-81
2022/06/03 02:01:34;;;;;;;4.18;3.88;;;;;;;;;;5075120;28;20456;-81
2022/06/03 02:04:00;;;;;;;4.57;4.28;;;;;;;;;;5075070;28;20414;-81
2022/06/03 02:06:44;;;;;;;4.95;4.50;;;;;;;;;;5075131;28;20868;-81
2022/06/03 02:09:35;;;;;;;4.30;4.00;;;;;;;;;;5057028;28;20926;-81
2022/06/03 02:12:20;;;;;;;4.95;4.45;;;;;;;;;;5056885;28;20395;-81
2022/06/03 02:14:53;;;;;;;5.80;5.40;;;;;;;;;;5075207;28;20533;-81
2022/06/03 02:17:19;;;;;;;5.25;4.85;;;;;;;;;;5072113;28;20406;-81
2022/06/03 02:20:06;;;;;;;5.72;5.32;;;;;;;;;;5054517;28;20387;-81
2022/06/03 02:22:50;;;;;;;5.50;5.03;;;;;;;;;;5054837;28;20380;-81
2022/06/03 02:25:22;;;;;;;6.05;5.65;;;;;;;;;;5073279;28;20509;-81
2022/06/03 02:28:07;;;;;;;4.70;4.40;;;;;;;;;;5072811;28;20379;-81
2022/06/03 02:30:39;;;;;;;5.50;5.10;;;;;;;;;;5074866;28;20464;-81
2022/06/03 02:33:14;;;;;;;5.53;5.20;;;;;;;;;;5074682;28;20468;-81
2022/06/03 02:35:40;;;;;;;5.80;5.30;;;;;;;;;;5057282;28;20393;-81
2022/06/03 02:38:12;;;;;;;5.55;5.15;;;;;;;;;;5052351;28;20793;-81
2022/06/03 02:40:57;;;;;;;5.28;4.97;;;;;;;;;;5068051;28;20450;-81
2022/06/03 02:43:31;;;;;;;5.03;4.63;;;;;;;;;;5057350;28;20455;-81
2022/06/03 02:46:30;;;;;;;6.00;5.50;;;;;;;;;;5062754;28;20370;-81
2022/06/03 02:49:10;;;;;;;6.20;5.70;;;;;;;;;;4993844;28;20393;-81
2022/06/03 02:51:42;;;;;;;5.53;5.13;;;;;;;;;;5037005;28;20428;-81
2022/06/03 02:54:29;;;;;;;5.22;4.82;;;;;;;;;;5060050;28;20390;-81
2022/06/03 02:56:55;;;;;;;5.90;5.40;;;;;;;;;;5074167;28;20411;-81
2022/06/03 02:59:24;;;;;;;6.30;5.70;;;;;;;;;;5073749;28;20438;-81
2022/06/03 03:02:08;;;;;;;5.10;4.70;;;;;;;;;;5073328;28;20422;-81
2022/06/03 03:04:49;;;;;;;5.60;5.20;;;;;;;;;;5072872;28;20372;-81
2022/06/03 03:07:25;;;;;;;5.90;5.40;;;;;;;;;;5073903;28;20421;-81
2022/06/03 03:10:10;;;;;;;5.97;5.57;;;;;;;;;;5074343;28;20384;-81
2022/06/03 03:12:42;;;;;;;6.17;5.67;;;;;;;;;;5073953;28;20429;-81
2022/06/03 03:15:26;;;;;;;5.43;4.90;;;;;;;;;;5073944;28;20426;-81
2022/06/03 03:17:52;;;;;;;4.65;4.30;;;;;;;;;;5073712;28;20375;-81
2022/06/03 03:20:24;;;;;;;5.25;4.85;;;;;;;;;;5073851;28;20881;-81
2022/06/03 03:22:53;;;;;;;7.40;6.80;;;;;;;;;;5073564;28;20410;-81
2022/06/03 03:25:52;;;;;;;6.60;6.10;;;;;;;;;;5055750;28;20862;-81
2022/06/03 03:28:36;;;;;;;6.30;5.80;;;;;;;;;;5008476;28;20373;-81
2022/06/03 03:31:20;;;;;;;6.57;6.07;;;;;;;;;;5040193;28;20384;-81
2022/06/03 03:34:05;;;;;;;6.57;6.10;;;;;;;;;;5073391;28;20415;-81
2022/06/03 03:36:51;;;;;;;7.65;6.07;;;;;;;;;;5073346;28;20380;-81
2022/06/03 03:39:34;;;;;;;5.88;5.47;;;;;;;;;;5056158;28;20841;-81
2022/06/03 03:42:09;;;;;;;5.85;5.38;;;;;;;;;;5062545;28;20444;-81
2022/06/03 03:44:54;;;;;;;5.75;5.35;;;;;;;;;;5051566;28;20745;-81
2022/06/03 03:47:38;;;;;;;5.97;5.53;;;;;;;;;;5072337;28;20430;-81
2022/06/03 03:50:10;;;;;;;5.38;4.97;;;;;;;;;;5073080;28;20419;-81
2022/06/03 03:52:50;;;;;;;6.00;5.57;;;;;;;;;;5072931;28;20430;-81
2022/06/03 03:55:19;;;;;;;6.03;5.63;;;;;;;;;;5055825;28;20498;-81
2022/06/03 03:58:00;;;;;;;6.33;5.90;;;;;;;;;;5047246;28;20427;-81
2022/06/03 04:00:29;;;;;;;6.10;5.70;;;;;;;;;;5060109;28;20494;-81
2022/06/03 04:03:08;;;;;;;6.32;5.82;;;;;;;;;;5054843;28;20740;-81
2022/06/03 04:05:49;;;;;;;6.25;5.75;;;;;;;;;;5073089;28;20383;-81
2022/06/03 04:08:24;;;;;;;6.50;6.00;;;;;;;;;;5063091;28;20378;-81
2022/06/03 04:10:53;;;;;;;6.00;5.60;;;;;;;;;;5045464;28;20376;-81
2022/06/03 04:13:22;;;;;;;6.38;5.88;;;;;;;;;;5072665;28;20394;-81
2022/06/03 04:15:49;;;;;;;6.30;5.90;;;;;;;;;;5072557;28;20525;-81
2022/06/03 04:18:33;;;;;;;6.22;5.72;;;;;;;;;;5072625;28;20380;-81
2022/06/03 04:21:14;;;;;;;5.60;5.18;;;;;;;;;;5072375;28;20426;-81
2022/06/03 04:23:43;;;;;;;6.65;6.15;;;;;;;;;;5072481;28;20476;-81
2022/06/03 04:26:28;;;;;;;6.83;6.33;;;;;;;;;;5072452;28;20452;-81
2022/06/03 04:28:57;;;;;;;5.82;5.43;;;;;;;;;;5072425;28;20376;-81
2022/06/03 04:31:33;;;;;;;5.90;5.50;;;;;;;;;;5072483;28;20380;-81
2022/06/03 04:34:17;;;;;;;5.87;5.47;;;;;;;;;;5070043;28;20431;-81
2022/06/03 04:36:55;;;;;;;6.22;5.72;;;;;;;;;;5043950;28;20414;-81
2022/06/03 04:39:24;;;;;;;6.20;5.70;;;;;;;;;;5072228;28;20449;-81
2022/06/03 04:42:09;;;;;;;6.72;6.20;;;;;;;;;;5046992;28;20414;-81
2022/06/03 04:44:35;;;;;;;6.03;5.63;;;;;;;;;;5070977;28;20861;-81
2022/06/03 04:47:04;;;;;;;6.67;6.17;;;;;;;;;;5061693;28;20464;-81
2022/06/03 04:49:36;;;;;;;6.20;5.70;;;;;;;;;;5068758;28;20481;-81
2022/06/03 04:52:08;;;;;;;7.05;6.55;;;;;;;;;;5073617;28;20384;-81
2022/06/03 04:54:49;;;;;;;6.38;5.90;;;;;;;;;;5072033;28;20426;-81
2022/06/03 04:57:24;;;;;;;7.07;6.57;;;;;;;;;;5071909;28;20379;-81
2022/06/03 05:00:24;;;;;;;8.05;7.45;;;;;;;;;;5071887;28;20468;-81
2022/06/03 05:03:09;;;;;;;7.78;7.22;;;;;;;;;;5017866;28;20524;-81
2022/06/03 05:05:53;;;;;;;7.60;7.10;;;;;;;;;;5071743;28;20723;-81
2022/06/03 05:08:38;;;;;;;8.02;7.32;;;;;;;;;;5071816;28;20371;-81
2022/06/03 05:11:06;;;;;;;7.57;6.97;;;;;;;;;;5071716;28;20384;-81
2022/06/03 05:13:32;;;;;;;8.15;7.45;;;;;;;;;;5053262;28;20399;-81
2022/06/03 05:16:04;;;;;;;7.85;7.15;;;;;;;;;;5039409;28;20395;-81
2022/06/03 05:18:49;;;;;;;7.77;7.07;;;;;;;;;;5071849;28;20402;-81
2022/06/03 05:21:18;;;;;;;10.07;7.47;;;;;;;;;;5063229;28;20401;-81
2022/06/03 05:23:57;;;;;;;8.30;7.63;;;;;;;;;;5066243;28;20391;-81
2022/06/03 05:26:42;;;;;;;7.50;6.90;;;;;;;;;;5072043;28;20383;-81
2022/06/03 05:29:16;;;;;;;6.88;6.38;;;;;;;;;;5071663;28;20440;-81
2022/06/03 05:31:54;;;;;;;6.80;6.18;;;;;;;;;;5071733;28;20384;-82
2022/06/03 05:34:30;;;;;;;6.65;5.97;;;;;;;;;;5071688;28;20906;-82
2022/06/03 05:37:02;;;;;;;7.17;6.57;;;;;;;;;;5071695;28;20400;-82
2022/06/03 05:39:34;;;;;;;7.68;7.10;;;;;;;;;;5071890;28;20379;-82
2022/06/03 05:42:23;;;;;;;7.88;7.28;;;;;;;;;;5060906;28;20927;-82
2022/06/03 05:45:01;;;;;;;7.07;6.57;;;;;;;;;;5044242;28;20479;-82
2022/06/03 05:47:34;;;;;;;6.82;6.30;;;;;;;;;;5045953;28;20395;-82
2022/06/03 05:50:00;;;;;;;6.93;6.43;;;;;;;;;;5045426;28;20426;-83
2022/06/03 05:52:29;;;;;;;7.83;7.03;;;;;;;;;;5071327;28;20380;-83
2022/06/03 05:55:01;;;;;;;6.73;6.30;;;;;;;;;;5063202;28;20383;-83
2022/06/03 05:57:42;;;;;;;6.88;6.35;;;;;;;;;;5035138;28;20384;-84
2022/06/03 06:00:22;;;;;;;6.40;5.90;;;;;;;;;;5046012;28;20474;-83
2022/06/03 06:02:49;;;;;;;6.28;5.78;;;;;;;;;;5053391;28;20438;-83
2022/06/03 06:05:16;;;;;;;6.90;6.40;;;;;;;;;;5071415;28;20425;-83
2022/06/03 06:07:54;;;;;;;7.90;7.13;;;;;;;;;;5046277;28;20391;-82
2022/06/03 06:10:35;;;;;;;8.07;7.32;;;;;;;;;;5065262;28;20412;-82
2022/06/03 06:13:21;;;;;;;7.65;7.10;;;;;;;;;;5074811;28;20931;-82
2022/06/03 06:16:08;;;;;;;8.38;7.78;;;;;;;;;;5069815;28;20393;-82
2022/06/03 06:18:40;;;;;;;9.88;9.10;;;;;;;;;;5068799;28;20944;-82
2022/06/03 06:21:19;;;;;;;9.40;8.70;;;;;;;;;;5048474;28;20438;-83
2022/06/03 06:23:47;;;;;;;9.77;8.97;;;;;;;;;;5066872;28;20391;-83
2022/06/03 06:26:13;;;;;;;10.30;9.50;;;;;;;;;;5073584;28;20387;-83
2022/06/03 06:29:02;;;;;;;9.15;8.50;;;;;;;;;;5066674;28;20379;-82
2022/06/03 06:31:40;;;;;;;9.77;8.88;;;;;;;;;;5074586;28;20462;-83
2022/06/03 06:34:22;;;;;;;9.60;8.70;;;;;;;;;;5045560;28;20401;-82
2022/06/03 06:36:55;;;;;;;8.88;8.27;;;;;;;;;;5054374;28;20401;-82
2022/06/03 06:39:28;;;;;;;8.57;7.70;;;;;;;;;;5053562;28;20376;-83
2022/06/03 06:41:54;;;;;;;9.15;8.35;;;;;;;;;;5065334;28;20434;-81
2022/06/03 06:44:39;;;;;;;8.00;7.40;;;;;;;;;;5052386;28;20782;-83
2022/06/03 06:47:17;;;;;;;8.10;7.50;;;;;;;;;;5073416;28;20376;-83
2022/06/03 06:49:50;;;;;;;8.23;7.63;;;;;;;;;;5067338;28;20374;-83
2022/06/03 06:52:24;;;;;;;7.32;6.72;;;;;;;;;;5065750;28;20451;-83
2022/06/03 06:54:56;;;;;;;7.18;6.65;;;;;;;;;;5054870;28;20746;-84
2022/06/03 06:57:22;;;;;;;8.50;7.88;;;;;;;;;;5074520;28;20436;-83
2022/06/03 06:59:57;;;;;;;7.83;7.23;;;;;;;;;;5074153;28;20494;-84
2022/06/03 07:02:25;;;;;;;7.57;7.03;;;;;;;;;;5048177;28;20407;-83
2022/06/03 07:04:59;;;;;;;8.45;7.80;;;;;;;;;;5055950;28;20441;-84
2022/06/03 07:07:44;;;;;;;7.97;7.38;;;;;;;;;;5067751;28;20839;-83
2022/06/03 07:10:13;;;;;;;7.60;7.10;;;;;;;;;;5068679;28;20468;-84
2022/06/03 07:12:44;;;;;;;8.30;7.70;;;;;;;;;;5073810;28;20425;-84
2022/06/03 07:15:14;;;;;;;7.53;7.00;;;;;;;;;;5074072;28;20471;-84
2022/06/03 07:20:56;;;;;;;8.07;7.47;;;;;;;;;;5057534;28;20416;-83
2022/06/03 07:23:35;;;;;;;9.50;7.32;;;;;;;;;;5065047;28;20387;-84
2022/06/03 07:26:15;;;;;;;8.00;7.38;;;;;;;;;;5073490;28;20423;-83
2022/06/03 07:28:45;;;;;;;8.07;7.47;;;;;;;;;;5073579;28;20383;-84
2022/06/03 07:31:15;;;;;;;8.07;7.47;;;;;;;;;;5073659;28;20386;-83
2022/06/03 07:33:46;;;;;;;7.82;7.28;;;;;;;;;;5055755;28;20395;-84
2022/06/03 07:36:16;;;;;;;7.15;6.55;;;;;;;;;;5073327;28;20379;-84
2022/06/03 07:38:48;;;;;;;7.35;6.70;;;;;;;;;;5073464;28;20414;-84
2022/06/03 07:41:17;;;;;;;7.10;6.55;;;;;;;;;;5073126;28;20407;-84
2022/06/03 07:43:46;;;;;;;6.93;6.40;;;;;;;;;;5056250;28;20467;-84
2022/06/03 07:46:25;;;;;;;6.85;6.32;;;;;;;;;;5055551;28;20403;-84
2022/06/03 07:48:52;;;;;;;6.40;6.00;;;;;;;;;;5073476;28;20384;-84
2022/06/03 07:51:21;;;;;;;6.50;5.90;;;;;;;;;;5073207;28;20394;-84
2022/06/03 07:53:55;;;;;;;6.72;6.22;;;;;;;;;;5073045;28;20423;-84
2022/06/03 07:56:22;;;;;;;6.80;6.20;;;;;;;;;;5073073;28;20372;-84
2022/06/03 07:58:51;;;;;;;6.23;5.63;;;;;;;;;;5058753;28;20389;-84
2022/06/03 08:01:25;;;;;;;5.68;5.28;;;;;;;;;;5064547;28;20436;-84
2022/06/03 08:03:52;;;;;;;6.22;5.63;;;;;;;;;;5072840;28;20392;-84
2022/06/03 08:06:25;;;;;;;6.53;6.00;;;;;;;;;;5054877;28;20383;-84
2022/06/03 08:11:41;;;;;;;6.53;6.03;;;;;;;;;;5072732;28;20460;-85
2022/06/03 08:14:07;;;;;;;5.28;4.82;;;;;;;;;;5072662;28;20857;-84
2022/06/03 08:16:40;;;;;;;5.53;5.13;;;;;;;;;;5072707;28;20384;-84
2022/06/03 08:19:12;;;;;;;6.07;5.53;;;;;;;;;;5072842;28;20479;-84
2022/06/03 08:21:46;;;;;;;5.40;5.00;;;;;;;;;;5059033;28;20488;-84
2022/06/03 08:24:17;;;;;;;6.22;5.72;;;;;;;;;;5070931;28;20912;-84
2022/06/03 08:26:45;;;;;;;6.30;5.28;;;;;;;;;;5072502;28;20429;-84
2022/06/03 08:29:20;;;;;;;4.87;4.47;;;;;;;;;;5072408;28;20376;-84
2022/06/03 08:31:46;;;;;;;5.18;4.78;;;;;;;;;;5072347;28;20512;-85
2022/06/03 08:34:18;;;;;;;5.22;4.82;;;;;;;;;;5054269;28;20387;-85
2022/06/03 08:36:44;;;;;;;4.80;4.40;;;;;;;;;;5072386;28;20391;-84
2022/06/03 08:39:15;;;;;;;4.85;4.45;;;;;;;;;;5072535;28;20552;-85
2022/06/03 08:41:52;;;;;;;5.18;4.68;;;;;;;;;;5067074;28;20411;-85
2022/06/03 08:44:21;;;;;;;5.53;5.03;;;;;;;;;;5064008;28;20379;-85
2022/06/03 08:46:56;;;;;;;5.28;4.88;;;;;;;;;;5061993;28;20847;-84
2022/06/03 08:49:26;;;;;;;5.20;4.70;;;;;;;;;;5049983;28;20502;-85
2022/06/03 08:51:56;;;;;;;4.18;3.97;;;;;;;;;;5072053;28;20860;-85
2022/06/03 08:54:27;;;;;;;4.60;4.20;;;;;;;;;;5071972;28;20402;-84
2022/06/03 08:56:55;;;;;;;4.82;4.10;;;;;;;;;;5072395;28;20383;-85
2022/06/03 08:59:26;;;;;;;4.65;4.30;;;;;;;;;;5060867;28;20409;-85
2022/06/03 09:01:54;;;;;;;4.50;4.10;;;;;;;;;;5054326;28;20413;-85
2022/06/03 09:04:20;;;;;;;4.57;4.15;;;;;;;;;;5071991;28;20384;-85
2022/06/03 09:07:19;;;;;;;4.80;4.40;;;;;;;;;;5071926;28;20926;-84
2022/06/03 09:09:45;;;;;;;5.18;4.28;;;;;;;;;;5017518;28;20376;-85
2022/06/03 09:12:29;;;;;;;4.50;4.10;;;;;;;;;;5071872;28;20390;-85
2022/06/03 09:14:56;;;;;;;5.20;4.70;;;;;;;;;;5072071;28;20903;-85
2022/06/03 09:17:25;;;;;;;4.68;4.13;;;;;;;;;;5071845;28;20454;-85
2022/06/03 09:19:52;;;;;;;5.18;4.45;;;;;;;;;;5071893;28;20390;-85
2022/06/03 09:22:21;;;;;;;4.30;4.00;;;;;;;;;;5071588;28;20505;-85
2022/06/03 09:24:48;;;;;;;5.00;3.90;;;;;;;;;;5072049;28;20376;-85
2022/06/03 09:27:16;;;;;;;4.10;3.70;;;;;;;;;;5055628;28;20369;-85
2022/06/03 09:29:46;;;;;;;4.65;3.85;;;;;;;;;;5071794;28;20445;-85
2022/06/03 09:32:13;;;;;;;4.20;3.90;;;;;;;;;;5071635;28;20412;-85
2022/06/03 09:34:40;;;;;;;4.07;3.42;;;;;;;;;;5071779;28;20379;-86
2022/06/03 09:37:07;;;;;;;4.05;3.35;;;;;;;;;;5071740;28;20367;-85
2022/06/03 09:39:33;;;;;;;3.65;3.30;;;;;;;;;;5071685;28;20383;-85
2022/06/03 09:41:59;;;;;;;4.50;4.03;;;;;;;;;;5061046;28;20490;-86
2022/06/03 09:44:27;;;;;;;4.53;3.40;;;;;;;;;;5054570;28;20730;-85
2022/06/03 09:46:57;;;;;;;3.03;2.73;;;;;;;;;;5075617;28;20403;-86
2022/06/03 09:49:24;;;;;;;4.10;3.13;;;;;;;;;;5075557;28;20380;-86
2022/06/03 09:51:56;;;;;;;3.80;2.80;;;;;;;;;;5075373;28;20893;-85
2022/06/03 09:54:39;;;;;;;2.88;2.60;;;;;;;;;;5075365;28;20386;-87
2022/06/03 09:57:12;;;;;;;3.78;2.60;;;;;;;;;;5075273;28;20376;-86
2022/06/03 09:59:40;;;;;;;3.38;3.08;;;;;;;;;;5061822;28;20432;-86
2022/06/03 10:02:08;;;;;;;3.95;2.85;;;;;;;;;;5073608;28;20408;-86
2022/06/03 10:04:34;;;;;;;3.97;2.80;;;;;;;;;;5075368;28;20379;-86
2022/06/03 10:07:00;;;;;;;2.40;2.00;;;;;;;;;;5061192;28;20380;-86
2022/06/03 10:17:46;;;;;;;2.45;1.83;;;;;;;;;;5068045;28;20381;-86
2022/06/03 10:20:12;;;;;;;2.33;1.70;;;;;;;;;;5068380;28;20384;-86
2022/06/03 10:22:38;;;;;;;1.83;1.73;;;;;;;;;;5060682;28;20380;-86
2022/06/03 10:25:07;;;;;;;2.40;1.90;;;;;;;;;;5057005;28;20391;-86
2022/06/03 10:27:33;;;;;;;2.70;1.77;;;;;;;;;;5069568;28;20854;-85
2022/06/03 10:29:59;;;;;;;1.97;1.40;;;;;;;;;;5064868;28;20914;-87
2022/06/03 10:32:26;;;;;;;1.65;1.40;;;;;;;;;;5074596;28;20402;-86
2022/06/03 10:34:55;;;;;;;2.35;1.48;;;;;;;;;;5074768;28;20466;-86
2022/06/03 10:37:25;;;;;;;1.42;1.33;;;;;;;;;;5074612;28;20384;-86
2022/06/03 10:39:56;;;;;;;1.67;1.45;;;;;;;;;;5074658;28;20387;-86
2022/06/03 10:42:24;;;;;;;1.70;1.30;;;;;;;;;;5058123;28;20764;-87
2022/06/03 10:44:54;;;;;;;1.92;1.20;;;;;;;;;;5029166;28;20941;-85
2022/06/03 10:47:32;;;;;;;1.45;1.15;;;;;;;;;;5056858;28;20415;-86
2022/06/03 10:49:59;;;;;;;2.28;1.40;;;;;;;;;;5047421;28;20414;-86
2022/06/03 11:03:31;;;;;;;1.92;1.50;;;;;;;;;;5074095;28;20481;-87
2022/06/03 11:05:58;;;;;;;1.88;1.30;;;;;;;;;;5074110;28;20891;-86
2022/06/03 11:08:24;;;;;;;1.70;1.20;;;;;;;;;;5047398;28;20526;-86
2022/06/03 11:10:52;;;;;;;4.00;2.47;;;;;;;;;;5074074;28;20391;-86
2022/06/03 11:13:26;;;;;;;2.63;1.65;;;;;;;;;;5073926;28;20853;-87
2022/06/03 11:15:52;;;;;;;1.65;1.10;;;;;;;;;;5073836;28;20418;-87
2022/06/03 11:18:25;;;;;;;1.52;1.20;;;;;;;;;;5061511;28;20435;-85
2022/06/03 11:20:52;;;;;;;2.72;1.30;;;;;;;;;;5058449;28;20434;-87
2022/06/03 11:23:18;;;;;;;1.30;1.20;;;;;;;;;;5055713;28;20830;-86
2022/06/03 11:25:49;;;;;;;2.00;1.30;;;;;;;;;;5059688;28;20418;-86
2022/06/03 11:28:15;;;;;;;1.35;1.20;;;;;;;;;;5074063;28;20376;-87
2022/06/03 11:31:01;;;;;;;2.17;1.30;;;;;;;;;;5073592;28;20462;-86
2022/06/03 11:33:29;;;;;;;3.05;1.50;;;;;;;;;;5073553;28;20868;-86
2022/06/03 11:36:01;;;;;;;1.63;1.20;;;;;;;;;;5073786;28;20391;-87
2022/06/03 11:38:29;;;;;;;2.17;1.20;;;;;;;;;;5073464;28;20387;-86
2022/06/03 11:40:57;;;;;;;1.42;1.27;;;;;;;;;;5053456;28;20432;-85
2022/06/03 11:43:35;;;;;;;2.45;1.10;;;;;;;;;;5050207;28;20401;-83
2022/06/03 11:46:10;;;;;;;1.60;1.10;;;;;;;;;;5061928;28;20381;-82
2022/06/03 11:48:38;;;;;;;2.10;1.30;;;;;;;;;;5055515;28;20382;-82
2022/06/03 11:51:05;;;;;;;2.05;1.20;;;;;;;;;;5049300;28;20381;-82
2022/06/03 11:53:32;;;;;;;1.98;1.30;;;;;;;;;;5049217;28;20431;-82
2022/06/03 11:56:02;;;;;;;1.73;1.20;;;;;;;;;;5049511;28;20387;-82
2022/06/03 11:58:28;;;;;;;1.23;1.00;;;;;;;;;;5033475;28;20387;-82
2022/06/03 12:01:04;;;;;;;1.40;1.30;;;;;;;;;;5049482;28;20942;-82
2022/06/03 12:03:30;;;;;;;1.30;1.10;;;;;;;;;;5072815;28;20419;-82
2022/06/03 12:05:59;;;;;;;1.60;1.02;;;;;;;;;;5054945;28;20505;-82
2022/06/03 12:08:44;;;;;;;1.92;1.10;;;;;;;;;;5029526;28;20441;-82
2022/06/03 12:14:19;;;;;;;1.05;0.90;;;;;;;;;;5058749;28;20780;-82
2022/06/03 12:17:04;;;;;;;2.40;1.05;;;;;;;;;;5052366;28;20407;-82
2022/06/03 12:19:35;;;;;;;1.60;0.80;;;;;;;;;;5048135;28;20383;-81
2022/06/03 12:22:20;;;;;;;0.77;0.70;;;;;;;;;;5072285;28;20430;-81
2022/06/03 12:24:47;;;;;;;1.10;0.80;;;;;;;;;;5054729;28;20856;-81
2022/06/03 12:27:16;;;;;;;0.90;0.80;;;;;;;;;;5072577;28;20484;-82
2022/06/03 12:30:02;;;;;;;1.57;0.80;;;;;;;;;;5072553;28;20372;-82
2022/06/03 12:32:29;;;;;;;1.38;0.68;;;;;;;;;;5022057;28;20372;-82
2022/06/03 12:35:13;;;;;;;0.90;0.80;;;;;;;;;;5072519;28;20375;-81
2022/06/03 12:37:39;;;;;;;3.55;1.40;;;;;;;;;;5064268;28;20387;-82
2022/06/03 12:40:21;;;;;;;2.17;1.20;;;;;;;;;;5057240;28;20415;-82
2022/06/03 12:42:47;;;;;;;2.17;1.50;;;;;;;;;;5041400;28;20396;-82
2022/06/03 12:45:26;;;;;;;2.10;1.20;;;;;;;;;;5059922;28;20411;-82
2022/06/03 12:47:52;;;;;;;1.80;1.10;;;;;;;;;;5056544;28;20387;-81
2022/06/03 12:50:23;;;;;;;2.25;1.30;;;;;;;;;;5072618;28;20379;-81
2022/06/03 12:52:50;;;;;;;2.70;1.50;;;;;;;;;;5072160;28;20461;-81
2022/06/03 12:55:27;;;;;;;4.00;1.42;;;;;;;;;;5066993;28;20371;-81
2022/06/03 12:57:56;;;;;;;3.30;1.80;;;;;;;;;;5063526;28;20495;-81
2022/06/03 13:00:23;;;;;;;2.03;1.50;;;;;;;;;;5055479;28;20396;-81
2022/06/03 13:03:04;;;;;;;4.00;1.60;;;;;;;;;;5039731;28;20726;-81
2022/06/03 13:05:49;;;;;;;2.10;1.55;;;;;;;;;;5057496;28;20442;-81
2022/06/03 13:08:27;;;;;;;2.43;1.53;;;;;;;;;;5072392;28;20372;-80
2022/06/03 13:10:56;;;;;;;3.15;1.60;;;;;;;;;;5072062;28;20433;-80
2022/06/03 13:13:24;;;;;;;2.72;2.00;;;;;;;;;;5055312;28;20377;-80
2022/06/03 13:15:51;;;;;;;2.70;1.63;;;;;;;;;;5057720;28;20528;-80
2022/06/03 13:18:36;;;;;;;3.58;1.77;;;;;;;;;;5051966;28;20387;-81
2022/06/03 13:21:02;;;;;;;2.05;1.95;;;;;;;;;;5048565;28;20906;-81
2022/06/03 13:23:34;;;;;;;2.38;2.17;;;;;;;;;;5071649;28;20409;-81
2022/06/03 13:26:15;;;;;;;7.80;2.30;;;;;;;;;;5071365;28;20375;-81
2022/06/03 13:28:43;;;;;;;2.15;2.03;;;;;;;;;;5044340;28;20422;-80
2022/06/03 13:31:12;;;;;;;3.10;2.10;;;;;;;;;;5070976;28;20784;-81
2022/06/03 13:33:56;;;;;;;4.95;2.53;;;;;;;;;;5067689;28;20376;-81
2022/06/03 13:36:30;;;;;;;4.45;3.85;;;;;;;;;;5051006;28;20401;-81
2022/06/03 13:38:57;;;;;;;4.20;2.30;;;;;;;;;;5041554;28;20390;-80
2022/06/03 13:44:42;;;;;;;4.17;2.10;;;;;;;;;;5040745;28;20437;-81
2022/06/03 13:47:11;;;;;;;2.90;2.15;;;;;;;;;;5036058;28;20376;-81
2022/06/03 13:49:39;;;;;;;3.05;2.00;;;;;;;;;;5035754;28;20432;-81
2022/06/03 13:52:05;;;;;;;2.90;2.40;;;;;;;;;;5039655;28;20447;-80
2022/06/03 13:54:33;;;;;;;3.05;2.50;;;;;;;;;;5040917;28;20378;-81
2022/06/03 13:57:17;;;;;;;2.80;2.13;;;;;;;;;;5044825;28;20868;-80
2022/06/03 13:59:44;;;;;;;3.15;2.05;;;;;;;;;;5038572;28;20390;-80
2022/06/03 14:02:18;;;;;;;2.50;2.00;;;;;;;;;;5041023;28;20407;-81
2022/06/03 14:04:56;;;;;;;2.55;2.30;;;;;;;;;;5037341;28;20379;-80
2022/06/03 14:07:24;;;;;;;2.55;2.17;;;;;;;;;;5036999;28;20394;-81
2022/06/03 14:09:53;;;;;;;3.75;2.30;;;;;;;;;;5055951;28;20375;-81
2022/06/03 14:12:30;;;;;;;3.08;2.10;;;;;;;;;;5048239;28;20936;-81
2022/06/03 14:15:02;;;;;;;2.47;2.30;;;;;;;;;;5065272;28;20398;-81
2022/06/03 14:17:28;;;;;;;2.45;2.25;;;;;;;;;;5069521;28;20386;-81
2022/06/03 14:20:11;;;;;;;2.75;2.53;;;;;;;;;;5065504;28;20764;-81
2022/06/03 14:22:40;;;;;;;2.80;2.60;;;;;;;;;;5047856;28;20473;-81
2022/06/03 14:25:12;;;;;;;3.97;2.90;;;;;;;;;;5059565;28;20432;-81
2022/06/03 14:27:42;;;;;;;3.17;2.87;;;;;;;;;;5042989;28;20764;-81
2022/06/03 14:30:09;;;;;;;3.05;2.75;;;;;;;;;;5051322;28;20369;-81
2022/06/03 14:32:36;;;;;;;3.38;2.65;;;;;;;;;;5057701;28;20471;-81
2022/06/03 14:35:08;;;;;;;4.03;3.17;;;;;;;;;;5066689;28;20473;-81
2022/06/03 14:37:37;;;;;;;3.40;2.90;;;;;;;;;;5067312;28;20379;-81
2022/06/03 14:40:06;;;;;;;3.30;2.33;;;;;;;;;;5074679;28;20443;-81
2022/06/03 14:42:35;;;;;;;4.35;3.80;;;;;;;;;;5057184;28;20531;-81
2022/06/03 14:45:02;;;;;;;4.70;2.80;;;;;;;;;;5074517;28;20375;-81
2022/06/03 14:47:33;;;;;;;3.60;3.30;;;;;;;;;;5074552;28;20381;-81
2022/06/03 14:50:16;;;;;;;4.40;4.00;;;;;;;;;;5074573;28;20461;-80
2022/06/03 14:52:46;;;;;;;5.00;3.47;;;;;;;;;;5074178;28;20463;-81
2022/06/03 14:55:14;;;;;;;3.83;3.17;;;;;;;;;;5071583;28;20470;-82
2022/06/03 14:57:43;;;;;;;3.13;2.85;;;;;;;;;;5039537;28;20482;-83
2022/06/03 15:00:13;;;;;;;3.73;3.17;;;;;;;;;;5067885;28;20474;-82
2022/06/03 15:02:47;;;;;;;3.92;3.17;;;;;;;;;;5048236;28;20406;-82
2022/06/03 15:05:16;;;;;;;3.83;3.20;;;;;;;;;;5050065;28;20387;-82
2022/06/03 15:07:47;;;;;;;3.47;2.90;;;;;;;;;;5038179;28;20882;-81
2022/06/03 15:10:15;;;;;;;3.78;2.80;;;;;;;;;;5038968;28;20411;-82
2022/06/03 15:12:50;;;;;;;9.02;3.63;;;;;;;;;;5043031;28;20445;-82
2022/06/03 15:15:36;;;;;;;4.10;3.40;;;;;;;;;;5046134;28;20401;-82
2022/06/03 15:18:11;;;;;;;4.40;3.17;;;;;;;;;;5038533;28;20391;-82
2022/06/03 15:20:37;;;;;;;4.03;3.35;;;;;;;;;;5049846;28;20419;-82
2022/06/03 15:23:04;;;;;;;4.23;3.37;;;;;;;;;;5050902;28;20499;-81
2022/06/03 15:25:43;;;;;;;4.43;4.00;;;;;;;;;;5068712;28;20471;-81
2022/06/03 15:28:10;;;;;;;4.60;4.18;;;;;;;;;;5072682;28;20376;-81
2022/06/03 15:30:55;;;;;;;4.38;3.97;;;;;;;;;;5056506;28;20390;-82
2022/06/03 15:33:22;;;;;;;5.03;4.10;;;;;;;;;;5044128;28;20402;-82
2022/06/03 15:35:56;;;;;;;4.15;3.70;;;;;;;;;;5056301;28;20460;-81
2022/06/03 15:38:24;;;;;;;3.20;2.90;;;;;;;;;;5073531;28;20372;-81
2022/06/03 15:40:59;;;;;;;3.25;2.95;;;;;;;;;;5068064;28;20410;-82
2022/06/03 15:43:26;;;;;;;3.53;3.13;;;;;;;;;;5035376;28;20406;-81
2022/06/03 15:45:52;;;;;;;3.13;2.70;;;;;;;;;;5038679;28;20380;-82
2022/06/03 15:48:23;;;;;;;3.20;2.90;;;;;;;;;;5073347;28;20461;-81
2022/06/03 15:51:01;;;;;;;4.07;3.28;;;;;;;;;;5052620;28;20398;-81
2022/06/03 15:53:37;;;;;;;3.37;3.07;;;;;;;;;;5046814;28;20379;-81